Time;durP1;ratioP1;P1;durP2;ratioP2;P2;SDS_P1;SDS_P2;PMS_P1;PMS_P2;Temp;Humidity;BMP_temperature;BMP_pressure;BME280_temperature;BME280_humidity;BME280_pressure;Samples;Min_cycle;Max_cycle;Signal;HPM_P1;HPM_P2
2022/09/28 00:02:00;;;;;;;6.65;1.60;;;13.10;51.50;;;;;;5055514;28;20033;-76
2022/09/28 00:04:26;;;;;;;4.90;1.58;;;13.10;51.60;;;;;;5026147;28;20195;-76
2022/09/28 00:06:52;;;;;;;5.22;1.20;;;13.00;51.50;;;;;;5042811;28;20223;-76
2022/09/28 00:09:19;;;;;;;6.35;1.30;;;13.00;51.50;;;;;;5043158;28;20029;-77
2022/09/28 00:11:45;;;;;;;4.70;1.70;;;13.00;51.60;;;;;;5048438;28;20033;-76
2022/09/28 00:14:12;;;;;;;5.85;1.65;;;12.90;51.50;;;;;;5045871;28;20043;-76
2022/09/28 00:16:43;;;;;;;3.47;1.65;;;12.90;51.50;;;;;;5028974;28;20114;-75
2022/09/28 00:19:10;;;;;;;4.55;1.25;;;12.90;51.60;;;;;;5045492;28;20389;-76
2022/09/28 00:21:39;;;;;;;2.78;1.20;;;12.80;51.50;;;;;;5047448;28;20510;-77
2022/09/28 00:24:12;;;;;;;7.88;2.80;;;12.80;51.50;;;;;;5049832;28;20475;-75
2022/09/28 00:26:42;;;;;;;4.85;1.10;;;12.80;51.60;;;;;;5053213;28;20808;-77
2022/09/28 00:29:16;;;;;;;5.82;1.48;;;12.70;51.40;;;;;;5030426;28;20037;-76
2022/09/28 00:31:42;;;;;;;5.32;1.00;;;12.70;51.50;;;;;;5029403;28;20036;-76
2022/09/28 00:34:09;;;;;;;4.93;1.70;;;12.60;51.30;;;;;;5049028;28;20524;-77
2022/09/28 00:36:36;;;;;;;4.60;1.08;;;12.50;51.20;;;;;;5051033;28;20025;-75
2022/09/28 00:39:05;;;;;;;4.05;1.10;;;12.50;51.30;;;;;;5051214;28;20029;-76
2022/09/28 00:41:31;;;;;;;4.10;1.30;;;12.40;51.10;;;;;;5043204;28;20116;-76
2022/09/28 00:44:36;;;;;;;5.97;1.52;;;12.40;51.20;;;;;;5047748;28;20030;-76
2022/09/28 00:47:40;;;;;;;6.22;1.42;;;12.30;51.10;;;;;;5043243;28;20320;-78
2022/09/28 00:50:30;;;;;;;7.57;1.55;;;12.30;51.30;;;;;;5041417;28;20058;-78
2022/09/28 00:53:23;;;;;;;3.03;1.15;;;12.20;51.20;;;;;;5048526;28;20032;-76
2022/09/28 00:55:56;;;;;;;4.38;1.10;;;12.20;51.20;;;;;;5047544;28;20344;-76
2022/09/28 00:58:35;;;;;;;3.13;1.25;;;12.10;51.10;;;;;;5050709;28;20033;-76
2022/09/28 01:01:02;;;;;;;3.28;1.00;;;12.00;51.00;;;;;;5053576;28;20063;-76
2022/09/28 01:03:28;;;;;;;5.43;1.25;;;12.00;51.00;;;;;;5056422;28;20162;-76
2022/09/28 01:05:59;;;;;;;7.55;1.83;;;12.00;51.20;;;;;;5050277;28;20056;-76
2022/09/28 01:08:27;;;;;;;3.58;1.00;;;11.90;51.00;;;;;;5033464;28;20301;-76
2022/09/28 01:10:54;;;;;;;2.92;1.00;;;11.90;51.10;;;;;;5050248;28;20032;-77
2022/09/28 01:13:23;;;;;;;2.15;1.27;;;11.80;51.00;;;;;;5047525;28;20052;-75
2022/09/28 01:16:12;;;;;;;3.75;1.33;;;11.80;51.10;;;;;;5035048;28;20555;-76
2022/09/28 01:19:12;;;;;;;4.18;1.10;;;11.80;51.20;;;;;;5047092;28;20040;-76
2022/09/28 01:22:03;;;;;;;4.93;1.10;;;11.70;51.10;;;;;;5041831;28;20029;-77
2022/09/28 01:24:43;;;;;;;5.03;1.85;;;11.70;51.10;;;;;;5042063;28;20090;-76
2022/09/28 01:27:34;;;;;;;4.20;1.10;;;11.60;50.90;;;;;;5037208;28;20377;-76
2022/09/28 01:30:07;;;;;;;6.18;1.67;;;11.60;51.10;;;;;;5032174;28;20506;-76
2022/09/28 01:33:01;;;;;;;5.37;1.67;;;11.60;51.10;;;;;;5040512;28;20496;-76
2022/09/28 01:35:55;;;;;;;3.95;0.95;;;11.50;51.00;;;;;;5036772;28;20264;-75
2022/09/28 01:38:27;;;;;;;3.97;1.15;;;11.50;51.10;;;;;;5047090;28;20074;-74
2022/09/28 01:40:54;;;;;;;6.28;1.55;;;11.50;51.10;;;;;;5047225;28;20476;-77
2022/09/28 01:43:29;;;;;;;4.75;1.65;;;11.50;51.20;;;;;;5022990;28;20029;-76
2022/09/28 01:46:20;;;;;;;4.40;1.35;;;11.50;51.30;;;;;;5042939;28;20045;-75
2022/09/28 01:48:54;;;;;;;5.95;1.10;;;11.40;51.20;;;;;;5048963;28;20032;-76
2022/09/28 01:51:44;;;;;;;4.10;1.55;;;11.40;51.20;;;;;;5048475;28;20041;-76
2022/09/28 01:54:14;;;;;;;4.22;1.30;;;11.40;51.30;;;;;;5049116;28;20049;-76
2022/09/28 01:56:53;;;;;;;4.10;1.00;;;11.40;51.30;;;;;;5049731;28;20039;-76
2022/09/28 01:59:26;;;;;;;4.93;1.85;;;11.40;51.40;;;;;;5056760;28;20033;-76
2022/09/28 02:01:59;;;;;;;6.40;1.60;;;11.40;51.40;;;;;;5058430;28;20034;-76
2022/09/28 02:04:31;;;;;;;3.97;1.02;;;11.40;51.50;;;;;;5033796;28;20031;-76
2022/09/28 02:07:11;;;;;;;4.55;1.55;;;11.40;51.50;;;;;;5033120;28;20048;-75
2022/09/28 02:09:43;;;;;;;3.63;0.93;;;11.40;51.50;;;;;;5050361;28;20361;-76
2022/09/28 02:12:15;;;;;;;6.55;1.38;;;11.40;51.50;;;;;;5049914;28;20020;-75
2022/09/28 02:14:48;;;;;;;4.70;1.60;;;11.40;51.60;;;;;;5048569;28;20032;-76
2022/09/28 02:17:15;;;;;;;7.40;2.10;;;11.40;51.60;;;;;;5051059;28;20021;-76
2022/09/28 02:19:42;;;;;;;3.47;1.38;;;11.40;51.70;;;;;;5035197;28;20481;-75
2022/09/28 02:22:23;;;;;;;3.95;1.80;;;11.40;51.70;;;;;;5050990;28;20391;-77
2022/09/28 02:24:53;;;;;;;4.30;1.20;;;11.30;51.70;;;;;;5046636;28;20029;-76
2022/09/28 02:27:41;;;;;;;4.70;1.20;;;11.30;51.60;;;;;;5049370;28;20377;-75
2022/09/28 02:30:08;;;;;;;5.40;0.98;;;11.30;51.80;;;;;;5049520;28;20035;-75
2022/09/28 02:32:39;;;;;;;4.13;1.27;;;11.30;51.80;;;;;;5049758;28;20044;-76
2022/09/28 02:35:13;;;;;;;3.42;0.82;;;11.30;51.90;;;;;;5049425;28;20029;-75
2022/09/28 02:37:39;;;;;;;7.05;1.23;;;11.30;51.90;;;;;;5051188;28;20036;-76
2022/09/28 02:40:18;;;;;;;3.15;1.00;;;11.20;51.80;;;;;;5051345;28;20399;-77
2022/09/28 02:43:23;;;;;;;5.65;0.85;;;11.20;51.90;;;;;;5046711;28;20083;-76
2022/09/28 02:46:05;;;;;;;4.30;1.48;;;11.20;52.10;;;;;;5050817;28;20052;-77
2022/09/28 02:49:03;;;;;;;3.92;1.40;;;11.10;51.90;;;;;;5048922;28;20246;-78
2022/09/28 02:51:50;;;;;;;3.10;1.15;;;11.10;51.90;;;;;;5050199;28;20550;-75
2022/09/28 02:54:31;;;;;;;1.17;0.70;;;11.10;51.90;;;;;;5050425;28;20057;-76
2022/09/28 02:57:24;;;;;;;6.25;1.08;;;11.10;52.10;;;;;;5035945;28;20041;-76
2022/09/28 03:00:17;;;;;;;3.55;1.20;;;11.10;52.20;;;;;;5051071;28;20040;-78
2022/09/28 03:02:56;;;;;;;2.95;1.10;;;11.10;52.10;;;;;;5045901;28;20039;-77
2022/09/28 03:05:51;;;;;;;3.95;1.08;;;11.10;52.10;;;;;;5043143;28;20041;-77
2022/09/28 03:08:28;;;;;;;4.15;1.13;;;11.10;52.20;;;;;;5044163;28;20499;-76
2022/09/28 03:11:04;;;;;;;2.72;0.80;;;11.10;52.10;;;;;;5053636;28;20036;-76
2022/09/28 03:13:33;;;;;;;3.83;1.00;;;11.00;52.60;;;;;;5047478;28;20035;-76
2022/09/28 03:16:11;;;;;;;2.65;0.88;;;11.00;52.10;;;;;;5037661;28;20043;-77
2022/09/28 03:18:38;;;;;;;5.75;1.50;;;11.00;52.30;;;;;;5047888;28;20442;-77
2022/09/28 03:21:04;;;;;;;3.03;1.10;;;10.90;52.10;;;;;;5034314;28;20087;-77
2022/09/28 03:23:31;;;;;;;4.43;1.35;;;10.90;52.20;;;;;;5055231;28;20051;-77
2022/09/28 03:26:04;;;;;;;4.53;1.42;;;10.80;52.10;;;;;;5046291;28;20052;-77
2022/09/28 03:28:30;;;;;;;3.83;1.33;;;10.80;52.10;;;;;;5051820;28;20529;-76
2022/09/28 03:30:56;;;;;;;6.78;1.02;;;10.80;52.30;;;;;;5058791;28;20086;-76
2022/09/28 03:33:23;;;;;;;3.33;1.13;;;10.70;52.20;;;;;;5047344;28;20105;-76
2022/09/28 03:35:49;;;;;;;3.63;0.80;;;10.70;52.20;;;;;;5045911;28;20052;-76
2022/09/28 03:38:17;;;;;;;2.80;1.30;;;10.60;52.00;;;;;;5028954;28;20308;-76
2022/09/28 03:40:57;;;;;;;2.63;1.33;;;10.60;52.10;;;;;;5033424;28;20033;-75
2022/09/28 03:43:24;;;;;;;3.97;1.05;;;10.50;52.00;;;;;;5026839;28;20033;-76
2022/09/28 03:45:59;;;;;;;2.50;1.30;;;10.50;52.10;;;;;;5028711;28;20066;-77
2022/09/28 03:48:28;;;;;;;1.95;1.20;;;10.50;52.20;;;;;;5053011;28;20115;-76
2022/09/28 03:50:56;;;;;;;3.53;1.20;;;10.40;52.10;;;;;;5044651;28;20032;-76
2022/09/28 03:53:23;;;;;;;4.13;1.00;;;10.40;52.10;;;;;;5034577;28;20028;-76
2022/09/28 03:55:52;;;;;;;2.90;0.90;;;10.40;52.10;;;;;;5016943;28;20036;-76
2022/09/28 03:58:21;;;;;;;4.05;0.98;;;10.40;52.20;;;;;;5050125;28;20047;-77
2022/09/28 04:00:48;;;;;;;2.17;0.93;;;10.40;52.20;;;;;;5050417;28;20485;-76
2022/09/28 04:03:15;;;;;;;3.50;0.82;;;10.40;52.20;;;;;;5033807;28;20021;-76
2022/09/28 04:05:49;;;;;;;3.33;0.98;;;10.40;52.20;;;;;;5045454;28;20102;-78
2022/09/28 04:08:15;;;;;;;5.35;1.15;;;10.40;52.30;;;;;;5031791;28;20036;-76
2022/09/28 04:10:41;;;;;;;4.15;0.85;;;10.40;52.30;;;;;;5048625;28;20033;-76
2022/09/28 04:13:07;;;;;;;3.08;1.10;;;10.40;52.40;;;;;;5048652;28;20353;-75
2022/09/28 04:15:33;;;;;;;3.30;1.00;;;10.30;52.20;;;;;;5050199;28;20032;-75
2022/09/28 04:18:00;;;;;;;3.22;1.23;;;10.30;52.30;;;;;;5038556;28;20037;-76
2022/09/28 04:20:44;;;;;;;2.58;0.98;;;10.20;52.20;;;;;;5038911;28;20041;-75
2022/09/28 04:23:11;;;;;;;2.35;0.80;;;10.20;52.30;;;;;;5049459;28;20029;-77
2022/09/28 04:25:38;;;;;;;3.10;1.45;;;10.10;52.20;;;;;;5050398;28;20444;-77
2022/09/28 04:30:52;;;;;;;3.10;0.75;;;10.10;52.30;;;;;;5049051;28;20025;-76
2022/09/28 04:33:18;;;;;;;3.63;1.55;;;10.00;52.20;;;;;;5048832;28;20033;-76
2022/09/28 04:35:46;;;;;;;4.00;0.90;;;10.00;52.20;;;;;;5033506;28;20036;-76
2022/09/28 04:38:11;;;;;;;7.75;1.30;;;10.00;52.30;;;;;;5051018;28;20029;-76
2022/09/28 04:40:39;;;;;;;3.67;1.02;;;9.90;52.20;;;;;;5048888;28;20039;-76
2022/09/28 04:43:05;;;;;;;5.45;0.98;;;9.90;52.30;;;;;;5034342;28;20030;-76
2022/09/28 04:45:32;;;;;;;3.00;0.82;;;9.80;52.20;;;;;;5041562;28;20053;-76
2022/09/28 04:48:08;;;;;;;5.43;2.30;;;9.80;52.30;;;;;;5040146;28;20508;-76
2022/09/28 04:50:59;;;;;;;1.73;0.75;;;9.80;52.40;;;;;;5039394;28;20513;-75
2022/09/28 04:53:27;;;;;;;2.17;0.90;;;9.80;52.30;;;;;;5042706;28;20086;-76
2022/09/28 04:56:06;;;;;;;4.22;1.05;;;9.80;52.40;;;;;;5049864;28;20438;-76
2022/09/28 04:58:34;;;;;;;1.25;0.77;;;9.80;53.20;;;;;;5044279;28;20029;-75
2022/09/28 05:01:04;;;;;;;2.08;0.75;;;9.80;52.50;;;;;;5045186;28;20510;-75
2022/09/28 05:03:59;;;;;;;6.13;1.15;;;9.80;52.60;;;;;;5009731;28;20073;-76
2022/09/28 05:06:46;;;;;;;3.95;1.00;;;9.80;52.50;;;;;;5024223;28;20093;-76
2022/09/28 05:09:12;;;;;;;2.53;1.27;;;9.80;52.50;;;;;;5021800;28;20457;-75
2022/09/28 05:11:38;;;;;;;2.55;1.20;;;9.80;52.50;;;;;;5043864;28;20029;-76
2022/09/28 05:14:10;;;;;;;7.60;1.38;;;9.80;52.60;;;;;;5045566;28;20033;-77
2022/09/28 05:16:38;;;;;;;3.22;0.85;;;9.80;52.60;;;;;;5047650;28;20037;-77
2022/09/28 05:19:23;;;;;;;4.90;1.25;;;9.80;52.70;;;;;;5045106;28;20032;-76
2022/09/28 05:21:50;;;;;;;5.50;1.02;;;9.70;52.50;;;;;;5045189;28;20039;-79
2022/09/28 05:24:17;;;;;;;4.15;1.90;;;9.70;52.70;;;;;;5043250;28;20178;-78
2022/09/28 05:26:50;;;;;;;2.47;0.88;;;9.70;52.70;;;;;;5054402;28;20531;-77
2022/09/28 05:29:16;;;;;;;3.60;1.40;;;9.70;52.80;;;;;;5048155;28;20041;-76
2022/09/28 05:31:48;;;;;;;2.38;0.90;;;9.70;53.00;;;;;;5044691;28;20274;-77
2022/09/28 05:34:28;;;;;;;5.93;1.60;;;9.60;52.80;;;;;;5032910;28;20083;-77
2022/09/28 05:36:54;;;;;;;4.40;1.30;;;9.60;52.90;;;;;;5042821;28;20029;-77
2022/09/28 05:39:21;;;;;;;6.95;1.27;;;9.60;53.00;;;;;;5030739;28;20624;-80
2022/09/28 05:41:47;;;;;;;8.35;1.48;;;9.50;52.90;;;;;;5049988;28;20044;-80
2022/09/28 05:44:13;;;;;;;3.50;1.23;;;9.60;53.20;;;;;;5047601;28;20028;-80
2022/09/28 05:46:41;;;;;;;4.28;2.03;;;9.60;53.30;;;;;;5050391;28;20047;-78
2022/09/28 05:49:09;;;;;;;3.30;1.25;;;9.60;53.50;;;;;;5028366;28;20045;-78
2022/09/28 05:51:37;;;;;;;7.32;1.90;;;9.60;54.10;;;;;;5050272;28;20024;-78
2022/09/28 05:54:04;;;;;;;2.95;1.23;;;9.60;53.50;;;;;;5056211;28;20056;-77
2022/09/28 05:56:30;;;;;;;4.65;1.42;;;9.60;53.60;;;;;;5061266;28;20052;-79
2022/09/28 05:58:57;;;;;;;5.25;1.30;;;9.60;53.70;;;;;;5059724;28;20036;-78
2022/09/28 06:01:26;;;;;;;4.30;1.50;;;9.60;53.80;;;;;;5068064;28;20032;-79
2022/09/28 06:03:56;;;;;;;3.65;1.33;;;9.60;53.80;;;;;;5071574;28;20053;-81
2022/09/28 06:06:22;;;;;;;1.60;1.15;;;9.60;53.90;;;;;;5064762;28;20207;-81
2022/09/28 06:08:49;;;;;;;4.22;1.60;;;9.60;53.90;;;;;;5038223;28;20039;-80
2022/09/28 06:11:37;;;;;;;3.70;1.10;;;9.50;53.80;;;;;;5031134;28;20650;-81
2022/09/28 06:14:09;;;;;;;1.92;1.20;;;9.60;54.00;;;;;;5033889;28;20053;-82
2022/09/28 06:16:35;;;;;;;3.15;1.30;;;9.50;53.90;;;;;;5044541;28;20067;-77
2022/09/28 06:19:01;;;;;;;2.95;1.08;;;9.50;54.60;;;;;;5053487;28;20417;-77
2022/09/28 06:21:38;;;;;;;5.10;1.42;;;9.60;54.20;;;;;;5051412;28;20645;-77
2022/09/28 06:24:05;;;;;;;3.35;1.40;;;9.60;54.20;;;;;;5053753;28;20485;-76
2022/09/28 06:26:32;;;;;;;1.98;1.02;;;9.60;54.30;;;;;;5049711;28;20099;-80
2022/09/28 06:28:59;;;;;;;4.18;1.17;;;9.60;54.30;;;;;;5038947;28;20034;-80
2022/09/28 06:31:30;;;;;;;5.25;1.25;;;9.60;54.40;;;;;;5045443;28;20484;-79
2022/09/28 06:33:56;;;;;;;3.45;1.17;;;9.60;54.40;;;;;;5048245;28;20040;-80
2022/09/28 06:36:22;;;;;;;3.33;1.20;;;9.70;54.70;;;;;;5026558;28;20377;-80
2022/09/28 06:38:49;;;;;;;4.55;1.83;;;9.70;54.60;;;;;;5053456;28;20435;-79
2022/09/28 06:41:16;;;;;;;2.72;1.17;;;9.70;54.60;;;;;;5049974;28;20431;-81
2022/09/28 06:43:45;;;;;;;3.78;1.48;;;9.70;54.70;;;;;;5019905;28;20413;-80
2022/09/28 06:46:11;;;;;;;5.28;1.65;;;9.80;54.90;;;;;;5052436;28;20040;-79
2022/09/28 06:48:47;;;;;;;3.78;1.42;;;9.80;55.00;;;;;;5033918;28;20021;-79
2022/09/28 06:51:17;;;;;;;6.70;2.08;;;9.80;55.00;;;;;;5051881;28;20032;-79
2022/09/28 06:53:55;;;;;;;4.68;1.30;;;9.90;55.10;;;;;;5052067;28;20118;-80
2022/09/28 06:56:36;;;;;;;4.05;1.40;;;9.90;55.10;;;;;;5042814;28;20451;-81
2022/09/28 06:59:02;;;;;;;5.65;1.58;;;10.00;55.30;;;;;;5034687;28;20021;-80
2022/09/28 07:01:28;;;;;;;6.10;1.67;;;10.00;55.30;;;;;;5031887;28;20043;-81
2022/09/28 07:04:02;;;;;;;4.15;1.20;;;10.10;55.50;;;;;;5050368;28;20090;-81
2022/09/28 07:06:47;;;;;;;3.22;1.55;;;10.20;55.60;;;;;;5054075;28;20045;-79
2022/09/28 07:09:32;;;;;;;4.20;1.38;;;10.30;55.80;;;;;;5049990;28;20033;-79
2022/09/28 07:12:17;;;;;;;2.58;1.08;;;10.40;55.90;;;;;;5049901;28;20108;-80
2022/09/28 07:14:56;;;;;;;4.35;1.00;;;10.40;55.80;;;;;;5051374;28;20025;-78
2022/09/28 07:17:24;;;;;;;;;;;10.50;55.90;;;;;;5028236;28;20043;-80
2022/09/28 07:19:55;;;;;;;2.45;1.00;;;10.60;56.00;;;;;;5046066;28;19913;-78
2022/09/28 07:22:21;;;;;;;2.92;1.10;;;10.70;55.80;;;;;;5048814;28;20063;-76
2022/09/28 07:24:49;;;;;;;4.47;1.33;;;10.80;55.90;;;;;;5036083;28;20068;-77
2022/09/28 07:27:38;;;;;;;6.47;2.88;;;10.90;56.10;;;;;;5040641;28;20505;-76
2022/09/28 07:30:25;;;;;;;3.08;1.20;;;11.00;56.20;;;;;;5048706;28;20040;-77
2022/09/28 07:33:13;;;;;;;4.95;1.40;;;11.20;57.00;;;;;;5045113;28;20051;-79
2022/09/28 07:35:54;;;;;;;2.58;1.10;;;11.20;56.40;;;;;;5034430;28;20033;-78
2022/09/28 07:38:24;;;;;;;3.10;1.00;;;11.30;56.50;;;;;;5047797;28;20036;-78
2022/09/28 07:41:10;;;;;;;2.63;1.10;;;11.50;56.80;;;;;;5039385;28;20702;-80
2022/09/28 07:43:42;;;;;;;5.72;1.55;;;11.60;57.00;;;;;;5041050;28;20040;-79
2022/09/28 07:46:10;;;;;;;2.47;1.30;;;11.80;57.20;;;;;;5049885;28;20043;-78
2022/09/28 07:48:44;;;;;;;2.47;1.23;;;11.90;57.30;;;;;;5024821;28;20045;-80
2022/09/28 07:51:20;;;;;;;5.47;1.52;;;12.00;57.60;;;;;;5047376;28;20029;-80
2022/09/28 07:54:14;;;;;;;9.88;3.20;;;12.20;57.80;;;;;;5046793;28;20053;-80
2022/09/28 07:57:14;;;;;;;3.85;1.27;;;12.40;57.90;;;;;;5048777;28;20245;-78
2022/09/28 07:59:55;;;;;;;3.33;0.95;;;12.60;57.90;;;;;;5046688;28;20368;-78
2022/09/28 08:02:44;;;;;;;6.88;1.33;;;12.80;58.10;;;;;;5054208;28;20033;-78
2022/09/28 08:05:12;;;;;;;4.10;1.08;;;13.00;58.20;;;;;;5046309;28;20033;-80
2022/09/28 08:07:38;;;;;;;4.80;1.17;;;13.10;58.80;;;;;;5045905;28;20037;-78
2022/09/28 08:10:07;;;;;;;5.50;1.30;;;13.30;58.40;;;;;;5040332;28;20081;-80
2022/09/28 08:12:56;;;;;;;5.43;0.80;;;13.40;58.40;;;;;;5036444;28;20047;-77
2022/09/28 08:15:47;;;;;;;4.47;1.17;;;13.50;58.40;;;;;;5030761;28;20041;-79
2022/09/28 08:18:18;;;;;;;3.47;1.00;;;13.60;58.30;;;;;;5047132;28;20086;-77
2022/09/28 08:23:31;;;;;;;5.65;1.13;;;13.80;58.40;;;;;;5045564;28;20033;-77
2022/09/28 08:25:57;;;;;;;3.53;0.82;;;13.90;58.50;;;;;;5044854;28;20037;-76
2022/09/28 08:28:24;;;;;;;5.28;1.00;;;14.00;58.60;;;;;;5047916;28;20040;-76
2022/09/28 08:30:58;;;;;;;2.45;1.17;;;14.10;58.70;;;;;;5045466;28;20029;-77
2022/09/28 08:33:43;;;;;;;3.47;0.70;;;14.20;58.60;;;;;;5029236;28;20059;-76
2022/09/28 08:36:46;;;;;;;4.13;0.88;;;14.30;58.50;;;;;;5046976;28;20077;-77
2022/09/28 08:39:48;;;;;;;4.30;1.10;;;14.40;58.50;;;;;;5019171;28;20085;-77
2022/09/28 08:42:38;;;;;;;2.25;0.73;;;14.50;58.50;;;;;;5032867;28;20037;-78
2022/09/28 08:45:16;;;;;;;2.20;0.90;;;14.60;58.40;;;;;;5040614;28;20033;-79
2022/09/28 08:51:21;;;;;;;3.65;1.02;;;14.80;58.40;;;;;;5035264;28;20025;-76
2022/09/28 08:54:19;;;;;;;3.13;0.98;;;14.90;58.20;;;;;;5045443;28;20814;-78
2022/09/28 08:56:54;;;;;;;2.92;0.88;;;15.10;58.20;;;;;;5050726;28;20040;-78
2022/09/28 08:59:24;;;;;;;1.63;0.50;;;15.20;58.00;;;;;;5048216;28;20484;-79
2022/09/28 09:02:05;;;;;;;2.53;0.65;;;15.30;57.80;;;;;;5052719;28;20039;-79
2022/09/28 09:04:33;;;;;;;3.88;0.60;;;15.50;57.80;;;;;;5042257;28;20234;-78
2022/09/28 09:07:46;;;;;;;3.50;1.00;;;15.60;57.40;;;;;;5052656;28;20041;-80
2022/09/28 09:10:16;;;;;;;4.05;1.13;;;15.80;57.30;;;;;;5045729;28;20511;-78
2022/09/28 09:13:22;;;;;;;2.72;0.98;;;15.90;57.10;;;;;;5048183;28;20037;-79
2022/09/28 09:16:05;;;;;;;6.82;1.00;;;16.00;56.80;;;;;;5011932;28;20041;-78
2022/09/28 09:19:13;;;;;;;1.95;0.50;;;16.10;56.70;;;;;;5032841;28;20034;-78
2022/09/28 09:22:10;;;;;;;2.65;0.88;;;16.20;56.50;;;;;;5051725;28;20029;-78
2022/09/28 09:24:45;;;;;;;1.48;0.65;;;16.30;57.10;;;;;;5037567;28;20370;-79
2022/09/28 09:27:30;;;;;;;3.15;0.80;;;16.30;56.20;;;;;;5052158;28;20051;-78
2022/09/28 09:30:10;;;;;;;2.65;0.80;;;16.30;56.10;;;;;;5033443;28;20097;-77
2022/09/28 09:33:06;;;;;;;2.25;0.60;;;16.40;56.00;;;;;;5019824;28;20036;-79
2022/09/28 09:36:02;;;;;;;2.58;0.70;;;16.40;55.90;;;;;;5045776;28;20037;-79
2022/09/28 09:39:15;;;;;;;2.88;0.70;;;16.40;55.80;;;;;;5042549;28;20438;-79
2022/09/28 09:42:25;;;;;;;2.47;0.80;;;16.50;55.80;;;;;;5037541;28;20037;-78
2022/09/28 09:45:48;;;;;;;3.92;1.45;;;16.50;55.60;;;;;;5048009;28;20029;-79
2022/09/28 09:48:46;;;;;;;2.60;0.73;;;16.50;55.30;;;;;;5013466;28;20051;-79
2022/09/28 09:51:41;;;;;;;1.38;0.70;;;16.40;55.20;;;;;;5044766;28;20201;-79
2022/09/28 09:54:56;;;;;;;2.08;0.70;;;16.40;55.10;;;;;;5049523;28;20045;-80
2022/09/28 09:57:39;;;;;;;2.58;0.55;;;16.30;55.00;;;;;;5050404;28;20340;-80
2022/09/28 10:00:25;;;;;;;0.77;0.60;;;16.30;55.20;;;;;;5009703;28;20026;-79
2022/09/28 10:03:15;;;;;;;1.30;0.45;;;16.30;55.10;;;;;;5011731;28;20150;-79
2022/09/28 10:05:50;;;;;;;4.70;1.63;;;16.30;54.90;;;;;;5031148;28;20025;-80
2022/09/28 10:08:19;;;;;;;1.10;0.57;;;16.30;54.60;;;;;;5044985;28;20037;-78
2022/09/28 10:11:06;;;;;;;2.72;0.80;;;16.40;55.30;;;;;;5049378;28;20036;-80
2022/09/28 10:13:34;;;;;;;2.80;0.80;;;16.40;54.60;;;;;;5030719;28;20037;-78
2022/09/28 10:16:06;;;;;;;1.60;0.57;;;16.40;54.50;;;;;;5047944;28;20484;-78
2022/09/28 10:18:37;;;;;;;0.82;0.50;;;16.50;54.50;;;;;;5044875;28;20048;-78
2022/09/28 10:21:12;;;;;;;1.75;0.68;;;16.60;54.40;;;;;;5041430;28;20472;-79
2022/09/28 10:24:01;;;;;;;4.20;0.63;;;16.70;54.30;;;;;;5050721;28;20071;-78
2022/09/28 10:26:39;;;;;;;1.60;0.38;;;16.80;54.20;;;;;;5045780;28;20649;-79
2022/09/28 10:29:14;;;;;;;1.58;0.70;;;16.90;53.80;;;;;;5045525;28;20115;-78
2022/09/28 10:31:49;;;;;;;1.98;0.50;;;17.00;53.70;;;;;;5036514;28;20113;-79
2022/09/28 10:34:25;;;;;;;;;;;17.00;53.50;;;;;;5028656;28;20037;-79
2022/09/28 10:37:02;;;;;;;1.52;0.60;;;17.00;53.40;;;;;;5048472;28;19908;-78
2022/09/28 10:39:49;;;;;;;4.30;0.68;;;17.10;53.60;;;;;;5051769;28;20054;-76
2022/09/28 10:42:25;;;;;;;1.15;0.43;;;17.00;53.20;;;;;;5040440;28;20040;-77
2022/09/28 10:45:18;;;;;;;0.98;0.45;;;17.00;53.00;;;;;;5050331;28;20029;-78
2022/09/28 10:47:45;;;;;;;0.85;0.40;;;17.00;52.90;;;;;;5049951;28;20056;-76
2022/09/28 10:50:21;;;;;;;2.05;0.50;;;17.00;53.00;;;;;;5038808;28;20115;-77
2022/09/28 10:52:49;;;;;;;3.33;0.90;;;17.10;53.00;;;;;;5040988;28;20037;-77
2022/09/28 10:56:03;;;;;;;2.20;0.47;;;17.20;53.00;;;;;;5040121;28;20071;-78
2022/09/28 10:58:40;;;;;;;1.42;0.40;;;17.40;52.80;;;;;;5060367;28;20090;-78
2022/09/28 11:01:21;;;;;;;1.40;0.30;;;17.60;52.80;;;;;;5034399;28;20080;-78
2022/09/28 11:04:01;;;;;;;3.47;0.40;;;17.90;52.80;;;;;;5043463;28;20025;-77
2022/09/28 11:06:35;;;;;;;2.03;0.30;;;18.10;52.30;;;;;;5041604;28;20048;-75
2022/09/28 11:09:33;;;;;;;1.65;0.68;;;18.30;52.30;;;;;;5052919;28;20167;-78
2022/09/28 11:12:05;;;;;;;;;;;18.40;51.80;;;;;;5030078;28;20374;-76
2022/09/28 11:14:39;;;;;;;1.42;0.50;;;18.50;52.10;;;;;;5051977;28;19909;-77
2022/09/28 11:17:25;;;;;;;1.83;0.60;;;18.70;52.20;;;;;;5031900;28;20041;-77
2022/09/28 11:19:53;;;;;;;2.40;0.40;;;18.90;52.20;;;;;;5043273;28;20021;-76
2022/09/28 11:22:32;;;;;;;2.15;0.40;;;19.10;52.10;;;;;;5052477;28;20036;-79
2022/09/28 11:25:20;;;;;;;1.52;0.45;;;19.30;51.80;;;;;;5051225;28;20033;-77
2022/09/28 11:27:52;;;;;;;1.15;0.60;;;19.50;51.60;;;;;;5050740;28;20051;-77
2022/09/28 11:30:25;;;;;;;3.28;1.80;;;19.60;51.40;;;;;;5045922;28;20041;-79
2022/09/28 11:33:29;;;;;;;2.42;0.52;;;19.70;51.40;;;;;;5045432;28;20036;-78
2022/09/28 11:37:01;;;;;;;1.95;0.55;;;19.80;51.30;;;;;;5055012;28;20336;-78
2022/09/28 11:39:45;;;;;;;1.67;0.68;;;19.90;51.10;;;;;;5027801;28;20099;-78
2022/09/28 11:42:30;;;;;;;1.48;0.68;;;20.10;51.20;;;;;;5037634;28;20026;-77
2022/09/28 11:45:25;;;;;;;1.50;0.65;;;20.10;50.80;;;;;;5038968;28;20192;-80
2022/09/28 11:48:09;;;;;;;1.52;0.60;;;20.20;50.80;;;;;;5046229;28;20040;-77
2022/09/28 11:50:54;;;;;;;2.92;0.52;;;20.20;50.60;;;;;;5041572;28;20041;-77
2022/09/28 11:53:41;;;;;;;1.75;0.93;;;20.20;50.40;;;;;;5044511;28;20025;-77
2022/09/28 11:56:31;;;;;;;2.95;0.60;;;20.30;50.40;;;;;;5046380;28;20048;-77
2022/09/28 11:59:15;;;;;;;1.45;0.75;;;20.30;49.90;;;;;;5045960;28;20047;-77
2022/09/28 12:01:57;;;;;;;0.82;0.60;;;20.40;50.00;;;;;;5052391;28;20033;-78
2022/09/28 12:04:36;;;;;;;1.20;0.50;;;20.60;50.10;;;;;;5047462;28;20031;-78
2022/09/28 12:07:16;;;;;;;0.88;0.50;;;20.60;50.00;;;;;;5046923;28;20071;-77
2022/09/28 12:10:07;;;;;;;1.25;1.05;;;20.70;49.90;;;;;;5042515;28;20029;-77
2022/09/28 12:12:49;;;;;;;4.00;0.55;;;20.70;49.30;;;;;;5031050;28;20565;-75
2022/09/28 12:15:25;;;;;;;1.50;0.45;;;20.80;49.50;;;;;;5031165;28;20021;-76
2022/09/28 12:18:12;;;;;;;0.90;0.40;;;20.80;49.20;;;;;;5037614;28;20115;-74
2022/09/28 12:20:43;;;;;;;2.20;0.50;;;20.90;49.10;;;;;;5044806;28;20047;-79
2022/09/28 12:23:17;;;;;;;1.52;0.47;;;21.00;49.30;;;;;;5050048;28;20040;-77
2022/09/28 12:25:48;;;;;;;1.52;0.52;;;21.10;49.20;;;;;;5049729;28;20043;-76
2022/09/28 12:28:45;;;;;;;1.20;0.52;;;21.10;49.10;;;;;;5047915;28;20033;-78
2022/09/28 12:31:24;;;;;;;0.85;0.50;;;21.10;48.90;;;;;;5043338;28;20189;-76
2022/09/28 12:33:51;;;;;;;3.28;0.98;;;21.10;48.90;;;;;;5045034;28;20037;-78
2022/09/28 12:36:40;;;;;;;1.48;0.50;;;21.10;48.90;;;;;;5045936;28;20025;-76
2022/09/28 12:39:34;;;;;;;0.35;0.30;;;21.00;48.50;;;;;;5030011;28;20037;-77
2022/09/28 12:42:19;;;;;;;2.03;0.60;;;20.80;48.40;;;;;;5043222;28;20669;-77
2022/09/28 12:45:16;;;;;;;1.40;0.50;;;20.60;48.50;;;;;;5048848;28;20124;-76
2022/09/28 12:48:12;;;;;;;1.45;0.50;;;20.30;48.20;;;;;;5044566;28;20041;-80
2022/09/28 12:51:06;;;;;;;0.88;0.60;;;20.10;48.30;;;;;;5051477;28;20033;-77
2022/09/28 12:53:59;;;;;;;1.15;0.70;;;19.90;48.20;;;;;;5048590;28;20559;-77
2022/09/28 12:56:49;;;;;;;1.48;0.47;;;19.70;48.30;;;;;;5038540;28;20035;-78
2022/09/28 12:59:32;;;;;;;1.85;0.70;;;19.70;48.50;;;;;;5046331;28;20278;-77
2022/09/28 13:02:40;;;;;;;0.75;0.60;;;19.60;48.40;;;;;;5049633;28;20029;-78
2022/09/28 13:05:34;;;;;;;0.80;0.40;;;19.60;48.40;;;;;;4987642;28;20385;-76
2022/09/28 13:08:30;;;;;;;1.88;0.43;;;19.60;48.20;;;;;;5008369;28;20057;-76
2022/09/28 13:11:08;;;;;;;1.58;0.65;;;19.70;48.30;;;;;;5034363;28;20459;-78
2022/09/28 13:13:46;;;;;;;2.28;0.85;;;19.80;48.30;;;;;;5048810;28;20028;-78
2022/09/28 13:16:24;;;;;;;1.90;0.45;;;19.90;48.30;;;;;;5041629;28;20697;-77
2022/09/28 13:19:15;;;;;;;0.70;0.30;;;19.90;48.10;;;;;;5023749;28;20021;-78
2022/09/28 13:22:06;;;;;;;0.38;0.38;;;19.90;47.90;;;;;;5050779;28;20029;-79
2022/09/28 13:24:35;;;;;;;1.35;0.47;;;20.00;48.10;;;;;;5037097;28;20033;-79
2022/09/28 13:27:13;;;;;;;1.02;0.40;;;20.00;48.10;;;;;;5036378;28;20095;-79
2022/09/28 13:29:40;;;;;;;0.95;0.30;;;20.10;48.20;;;;;;5047552;28;20028;-78
2022/09/28 13:32:08;;;;;;;2.28;0.73;;;20.30;48.50;;;;;;5048316;28;20082;-77
2022/09/28 13:34:36;;;;;;;1.77;0.65;;;20.50;48.60;;;;;;5047533;28;20044;-78
2022/09/28 13:37:20;;;;;;;0.95;0.25;;;20.70;48.50;;;;;;5030461;28;20410;-77
2022/09/28 13:39:55;;;;;;;0.60;0.20;;;21.10;48.60;;;;;;5048245;28;20055;-77
2022/09/28 13:42:22;;;;;;;1.42;0.40;;;21.30;48.50;;;;;;5031568;28;20033;-77
2022/09/28 13:45:12;;;;;;;3.03;0.75;;;21.50;48.40;;;;;;5045486;28;20060;-77
2022/09/28 13:47:50;;;;;;;1.58;0.60;;;21.80;48.70;;;;;;5048186;28;20045;-77
2022/09/28 13:51:03;;;;;;;2.30;0.65;;;22.00;48.60;;;;;;5044971;28;20033;-80
2022/09/28 13:54:01;;;;;;;1.57;1.00;;;22.20;48.20;;;;;;5025711;28;20487;-76
2022/09/28 13:56:56;;;;;;;1.95;1.35;;;22.30;47.90;;;;;;5042621;28;20760;-77